Time;durP1;ratioP1;P1;durP2;ratioP2;P2;SDS_P1;SDS_P2;PMS_P1;PMS_P2;Temp;Humidity;BMP_temperature;BMP_pressure;BME280_temperature;BME280_humidity;BME280_pressure;Samples;Min_cycle;Max_cycle;Signal;HPM_P1;HPM_P2
2022/03/20 00:02:06;;;;;;;31.43;18.43;;;;;;;1.64;41.98;103199.22;1708969;84;21503;-71
2022/03/20 00:04:34;;;;;;;30.23;17.13;;;;;;;1.66;42.07;103193.27;1708639;84;20982;-71
2022/03/20 00:07:01;;;;;;;30.17;17.97;;;;;;;1.69;42.00;103198.98;1708841;84;20914;-71
2022/03/20 00:09:29;;;;;;;31.03;17.27;;;;;;;1.65;42.14;103198.39;1708607;84;20998;-72
2022/03/20 00:11:57;;;;;;;30.67;17.23;;;;;;;1.62;42.28;103192.67;1708844;84;21338;-71
2022/03/20 00:14:24;;;;;;;31.60;18.63;;;;;;;1.61;42.43;103192.21;1708546;84;21917;-71
2022/03/20 00:16:53;;;;;;;33.70;18.03;;;;;;;1.59;42.54;103191.66;1708487;84;21108;-71
2022/03/20 00:19:21;;;;;;;34.60;18.53;;;;;;;1.56;42.67;103193.70;1708318;84;21097;-72
2022/03/20 00:21:48;;;;;;;31.20;18.00;;;;;;;1.48;42.71;103188.18;1708732;83;21041;-71
2022/03/20 00:24:15;;;;;;;32.30;18.20;;;;;;;1.44;42.88;103185.38;1708613;83;21279;-72
2022/03/20 00:26:43;;;;;;;33.60;18.43;;;;;;;1.40;42.77;103186.95;1708776;84;21136;-71
2022/03/20 00:29:10;;;;;;;33.27;18.07;;;;;;;1.34;42.84;103186.27;1708876;83;21073;-71
2022/03/20 00:31:37;;;;;;;38.60;19.10;;;;;;;1.30;42.84;103188.24;1708655;83;21037;-71
2022/03/20 00:34:04;;;;;;;32.27;18.27;;;;;;;1.30;42.87;103186.95;1708949;83;21005;-71
2022/03/20 00:36:35;;;;;;;34.43;18.17;;;;;;;1.28;42.93;103185.11;1708716;83;21006;-72
2022/03/20 00:39:03;;;;;;;34.07;18.53;;;;;;;1.26;42.85;103185.03;1708903;84;21939;-71
2022/03/20 00:41:30;;;;;;;32.37;18.00;;;;;;;1.28;42.81;103186.41;1708482;84;21036;-71
2022/03/20 00:43:58;;;;;;;31.40;17.37;;;;;;;1.27;42.83;103177.73;1708753;83;21010;-72
2022/03/20 00:46:27;;;;;;;32.67;18.20;;;;;;;1.27;43.02;103176.45;1698066;84;21022;-72
2022/03/20 00:48:55;;;;;;;33.67;18.60;;;;;;;1.26;42.99;103172.11;1708849;84;21025;-72
2022/03/20 00:51:23;;;;;;;34.27;19.37;;;;;;;1.25;43.04;103172.05;1708645;83;21125;-71
2022/03/20 00:53:50;;;;;;;33.47;18.57;;;;;;;1.23;43.07;103167.22;1708780;83;21541;-71
2022/03/20 00:56:17;;;;;;;35.77;19.23;;;;;;;1.19;43.02;103164.00;1708685;83;21009;-71
2022/03/20 00:58:46;;;;;;;36.70;19.63;;;;;;;1.16;43.16;103162.16;1708805;83;21022;-72
2022/03/20 01:01:14;;;;;;;38.73;19.30;;;;;;;1.11;43.15;103164.55;1708626;83;20993;-72
2022/03/20 01:03:42;;;;;;;34.87;18.33;;;;;;;1.07;43.27;103163.91;1708880;84;21101;-72
2022/03/20 01:06:10;;;;;;;35.47;18.93;;;;;;;1.07;43.27;103159.16;1708510;84;20974;-71
2022/03/20 01:08:38;;;;;;;32.17;18.70;;;;;;;1.05;43.31;103156.52;1708969;83;22079;-72
2022/03/20 01:11:08;;;;;;;38.10;19.53;;;;;;;1.05;43.33;103157.81;1708600;83;21006;-71
2022/03/20 01:13:36;;;;;;;32.50;17.90;;;;;;;1.04;43.39;103154.73;1708840;84;21029;-71
2022/03/20 01:16:04;;;;;;;31.67;18.33;;;;;;;1.03;43.41;103154.69;1708656;83;21087;-72
2022/03/20 01:18:31;;;;;;;36.43;19.63;;;;;;;1.00;43.43;103150.25;1708829;83;21013;-71
2022/03/20 01:20:58;;;;;;;37.30;19.90;;;;;;;0.98;43.53;103153.17;1708556;84;21013;-71
2022/03/20 01:23:25;;;;;;;32.63;19.20;;;;;;;0.96;43.52;103145.75;1708805;83;21065;-71
2022/03/20 01:25:53;;;;;;;31.33;17.80;;;;;;;0.95;43.54;103147.86;1708694;83;21044;-71
2022/03/20 01:28:26;;;;;;;35.00;19.10;;;;;;;0.95;43.50;103149.16;1708924;84;21926;-71
2022/03/20 01:30:52;;;;;;;34.18;19.50;;;;;;;0.94;43.58;103149.06;1707719;83;20998;-71
2022/03/20 01:33:19;;;;;;;35.17;18.83;;;;;;;0.92;43.65;103153.30;1708578;83;21002;-72
2022/03/20 01:35:46;;;;;;;37.63;18.60;;;;;;;0.88;43.72;103149.67;1708559;84;21097;-71
2022/03/20 01:38:20;;;;;;;34.23;19.43;;;;;;;0.86;43.73;103143.57;1708902;84;21471;-71
2022/03/20 01:40:42;;;;;;;38.30;19.53;;;;;;;0.82;43.75;103141.23;1707228;83;21495;-71
2022/03/20 01:43:09;;;;;;;34.27;19.30;;;;;;;0.76;43.74;103142.23;1708741;83;21471;-71
2022/03/20 01:45:37;;;;;;;34.20;18.97;;;;;;;0.74;43.87;103146.84;1698131;84;21109;-71
2022/03/20 01:48:05;;;;;;;34.83;18.53;;;;;;;0.71;44.06;103151.87;1708594;84;21013;-71
2022/03/20 01:50:32;;;;;;;33.30;18.20;;;;;;;0.69;44.17;103149.61;1708680;83;21029;-71
2022/03/20 01:53:01;;;;;;;32.30;19.03;;;;;;;0.67;44.32;103150.84;1709034;83;21108;-71
2022/03/20 01:55:29;;;;;;;32.93;18.10;;;;;;;0.60;44.29;103143.61;1708649;83;21593;-71
2022/03/20 01:57:57;;;;;;;32.70;18.43;;;;;;;0.54;44.41;103145.49;1708947;84;21048;-72
2022/03/20 02:00:27;;;;;;;32.27;18.43;;;;;;;0.52;44.46;103143.64;1708795;83;21034;-71
2022/03/20 02:02:55;;;;;;;34.13;19.48;;;;;;;0.52;44.55;103143.23;1709119;84;22167;-72
2022/03/20 02:05:22;;;;;;;33.93;18.37;;;;;;;0.52;44.60;103144.94;1708674;84;21106;-72
2022/03/20 02:07:49;;;;;;;38.50;19.77;;;;;;;0.51;44.59;103141.48;1709003;84;20994;-72
2022/03/20 02:10:16;;;;;;;33.90;19.37;;;;;;;0.49;44.61;103142.20;1708683;83;21041;-72
2022/03/20 02:12:44;;;;;;;32.67;18.27;;;;;;;0.48;44.67;103141.33;1709052;83;21046;-71
2022/03/20 02:15:14;;;;;;;33.73;17.87;;;;;;;0.46;44.78;103137.78;1708739;83;21579;-72
2022/03/20 02:17:44;;;;;;;31.42;18.02;;;;;;;0.41;44.79;103142.70;1708827;84;21472;-72
2022/03/20 02:20:12;;;;;;;33.63;19.60;;;;;;;0.39;44.91;103137.02;1708856;84;21478;-72
2022/03/20 02:22:43;;;;;;;32.63;18.33;;;;;;;0.33;44.90;103137.98;1708948;83;20917;-72
2022/03/20 02:25:15;;;;;;;32.13;18.63;;;;;;;0.33;45.06;103135.41;1708751;84;21069;-71
2022/03/20 02:27:44;;;;;;;38.53;20.33;;;;;;;0.33;45.12;103137.58;1708890;83;21543;-71
2022/03/20 02:30:16;;;;;;;36.33;19.60;;;;;;;0.34;45.08;103135.91;1709165;83;21115;-72
2022/03/20 02:32:49;;;;;;;37.93;18.63;;;;;;;0.34;45.19;103136.79;1708651;83;21654;-71
2022/03/20 02:35:18;;;;;;;33.20;17.37;;;;;;;0.32;45.17;103133.66;1709056;84;21025;-72
2022/03/20 02:37:51;;;;;;;34.40;18.70;;;;;;;0.25;45.21;103141.51;1708707;83;21002;-72
2022/03/20 02:40:21;;;;;;;35.13;19.67;;;;;;;0.19;45.31;103140.80;1708960;84;21049;-72
2022/03/20 02:42:50;;;;;;;;;;;;;;;0.17;45.42;103137.66;1711273;84;21129;-71
2022/03/20 02:45:22;;;;;;;32.87;18.23;;;;;;;0.15;45.63;103140.56;1712016;83;20116;-71
2022/03/20 02:47:51;;;;;;;34.10;18.03;;;;;;;0.14;45.59;103138.77;1716159;83;20974;-71
2022/03/20 02:50:27;;;;;;;36.63;18.83;;;;;;;0.10;45.56;103140.32;1716617;83;21093;-71
2022/03/20 02:52:59;;;;;;;33.30;18.90;;;;;;;0.05;45.71;103138.33;1716378;83;21033;-72
2022/03/20 02:55:32;;;;;;;37.63;18.70;;;;;;;0.03;45.83;103140.84;1716298;83;21120;-72
2022/03/20 02:58:02;;;;;;;35.27;19.63;;;;;;;-0.01;45.83;103133.75;1716721;83;21045;-71
2022/03/20 03:00:32;;;;;;;32.90;18.65;;;;;;;-0.03;45.93;103136.64;1716417;83;21005;-71
2022/03/20 03:03:04;;;;;;;33.53;19.57;;;;;;;-0.03;46.01;103140.13;1716700;83;20914;-72
2022/03/20 03:05:33;;;;;;;36.97;19.37;;;;;;;-0.06;45.99;103145.11;1716903;83;21522;-72
2022/03/20 03:10:56;;;;;;;33.57;19.00;;;;;;;-0.09;46.07;103145.37;1716357;83;20985;-72
2022/03/20 03:13:34;;;;;;;33.30;18.97;;;;;;;-0.11;46.20;103144.02;1716602;83;21013;-72
2022/03/20 03:16:05;;;;;;;33.43;19.17;;;;;;;-0.09;46.18;103141.09;1716329;83;21001;-72
2022/03/20 03:18:33;;;;;;;;;;;;;;;-0.12;46.20;103143.52;1719162;83;21072;-72
2022/03/20 03:21:00;;;;;;;36.17;18.37;;;;;;;-0.13;46.37;103139.17;1716364;83;21113;-72
2022/03/20 03:23:29;;;;;;;31.23;17.87;;;;;;;-0.15;46.44;103139.91;1716519;83;21041;-72
2022/03/20 03:25:57;;;;;;;34.57;19.10;;;;;;;-0.17;46.46;103135.95;1716292;83;21036;-72
2022/03/20 03:28:32;;;;;;;30.40;17.83;;;;;;;-0.16;46.53;103146.77;1716410;83;21574;-72
2022/03/20 03:30:54;;;;;;;32.10;17.57;;;;;;;-0.18;46.66;103139.34;1715817;83;21431;-72
2022/03/20 03:33:22;;;;;;;38.23;18.73;;;;;;;-0.22;46.51;103143.88;1716470;83;21947;-72
2022/03/20 03:35:57;;;;;;;32.67;17.10;;;;;;;-0.24;46.50;103146.77;1716048;83;21009;-72
2022/03/20 03:38:30;;;;;;;32.10;18.13;;;;;;;-0.28;46.55;103140.58;1716363;83;20922;-72
2022/03/20 03:40:58;;;;;;;33.00;16.93;;;;;;;-0.32;46.67;103148.06;1716066;83;21487;-72
2022/03/20 03:43:25;;;;;;;36.90;18.07;;;;;;;-0.42;46.58;103147.09;1716195;83;21048;-72
2022/03/20 03:45:56;;;;;;;33.30;18.23;;;;;;;-0.54;46.71;103146.94;1716034;83;21294;-72
2022/03/20 03:48:25;;;;;;;34.40;18.10;;;;;;;-0.62;46.80;103148.22;1716495;83;20989;-72
2022/03/20 03:50:53;;;;;;;35.27;18.60;;;;;;;-0.69;46.87;103145.74;1716295;83;21052;-71
2022/03/20 03:53:21;;;;;;;31.83;17.63;;;;;;;-0.72;46.92;103151.11;1716559;83;21041;-71
2022/03/20 03:55:49;;;;;;;34.27;19.37;;;;;;;-0.78;47.13;103150.78;1716272;83;21526;-72
2022/03/20 03:58:16;;;;;;;32.27;18.20;;;;;;;-0.85;47.33;103152.56;1716428;83;21558;-72
2022/03/20 04:00:44;;;;;;;36.83;18.23;;;;;;;-0.93;47.52;103147.00;1716308;83;21037;-72
2022/03/20 04:03:12;;;;;;;29.03;17.43;;;;;;;-0.98;47.65;103148.02;1716323;83;21021;-71
2022/03/20 04:05:40;;;;;;;32.47;17.13;;;;;;;-1.03;47.78;103142.14;1716369;83;21009;-71
2022/03/20 04:08:09;;;;;;;36.40;18.20;;;;;;;-1.09;47.94;103141.41;1716341;83;21423;-72
2022/03/20 04:10:37;;;;;;;34.43;18.13;;;;;;;-1.16;48.00;103144.06;1716245;83;21538;-72
2022/03/20 04:13:05;;;;;;;32.13;17.17;;;;;;;-1.24;48.14;103149.18;1716379;83;21372;-72
2022/03/20 04:15:32;;;;;;;33.97;17.47;;;;;;;-1.25;48.08;103140.08;1716188;83;21068;-72
2022/03/20 04:18:01;;;;;;;34.77;18.87;;;;;;;-1.22;48.06;103146.67;1716355;83;20978;-72
2022/03/20 04:20:28;;;;;;;34.57;16.77;;;;;;;-1.22;48.18;103143.73;1716303;83;21021;-72
2022/03/20 04:25:42;;;;;;;35.50;18.87;;;;;;;-1.22;48.33;103141.53;1716317;83;21017;-71
2022/03/20 04:28:09;;;;;;;34.87;18.50;;;;;;;-1.27;48.50;103143.88;1716765;83;21454;-72
2022/03/20 04:30:37;;;;;;;34.07;18.17;;;;;;;-1.31;48.62;103143.60;1716542;83;21021;-72
2022/03/20 04:33:05;;;;;;;34.27;18.27;;;;;;;-1.30;48.67;103146.65;1716570;83;21506;-72
2022/03/20 04:35:33;;;;;;;33.77;18.47;;;;;;;-1.30;48.63;103146.65;1716371;83;21498;-72
2022/03/20 04:38:01;;;;;;;32.97;17.40;;;;;;;-1.32;48.49;103153.02;1716519;83;21065;-72
2022/03/20 04:40:28;;;;;;;31.47;17.80;;;;;;;-1.30;48.59;103149.22;1716232;83;21024;-72
2022/03/20 04:42:55;;;;;;;33.53;18.13;;;;;;;-1.26;48.68;103143.05;1716514;83;21041;-72
2022/03/20 04:45:22;;;;;;;33.70;18.03;;;;;;;-1.23;48.77;103150.94;1716251;83;21309;-72
2022/03/20 04:58:43;;;;;;;30.90;17.63;;;;;;;-1.57;49.13;103155.89;1716604;83;21478;-72
2022/03/20 05:01:11;;;;;;;34.00;18.47;;;;;;;-1.62;49.33;103156.03;1716496;83;21224;-72
2022/03/20 05:03:39;;;;;;;31.50;17.57;;;;;;;-1.66;49.36;103157.55;1716660;83;21005;-72
2022/03/20 05:06:06;;;;;;;33.13;17.87;;;;;;;-1.69;49.47;103167.66;1716200;83;21037;-72
2022/03/20 05:08:38;;;;;;;34.23;17.60;;;;;;;-1.73;49.65;103164.41;1716598;83;20961;-72
2022/03/20 05:13:51;;;;;;;29.03;16.93;;;;;;;-1.86;49.78;103172.20;1734596;82;21115;-72
2022/03/20 05:16:18;;;;;;;31.00;16.70;;;;;;;-1.79;50.05;103174.34;1736282;82;21019;-72
2022/03/20 05:18:45;;;;;;;35.17;17.90;;;;;;;-1.82;50.07;103169.03;1736452;82;21019;-72
2022/03/20 05:21:12;;;;;;;28.53;16.40;;;;;;;-1.88;50.26;103176.39;1736299;82;21612;-72
2022/03/20 05:23:39;;;;;;;34.10;18.63;;;;;;;-1.96;50.46;103180.20;1736442;82;20985;-72
2022/03/20 05:26:07;;;;;;;32.13;18.17;;;;;;;-2.02;50.59;103180.31;1736294;82;21123;-72
2022/03/20 05:28:34;;;;;;;30.30;17.97;;;;;;;-1.96;50.91;103182.77;1736122;82;21047;-70
2022/03/20 05:31:03;;;;;;;30.97;18.37;;;;;;;-1.96;50.96;103182.36;1736628;82;20996;-70
2022/03/20 05:33:31;;;;;;;31.63;17.20;;;;;;;-1.98;51.18;103182.66;1736460;82;21020;-71
2022/03/20 05:35:58;;;;;;;33.07;17.60;;;;;;;-1.98;51.18;103181.38;1736197;82;21012;-71
2022/03/20 05:38:27;;;;;;;32.23;17.43;;;;;;;-2.00;51.33;103185.94;1736251;82;49666;-71
2022/03/20 05:41:43;;;;;;;29.50;16.93;;;;;;;-2.02;51.61;103188.03;1736091;82;21016;-71
2022/03/20 05:43:23;;;;;;;35.10;17.47;;;;;;;-1.99;51.71;103190.30;1733295;82;21476;-70
2022/03/20 05:45:49;;;;;;;30.50;16.97;;;;;;;-1.90;51.86;103189.55;1734338;82;21012;-71
2022/03/20 05:48:16;;;;;;;34.30;18.47;;;;;;;-1.83;52.01;103192.95;1762189;81;21030;-71
2022/03/20 05:50:43;;;;;;;34.87;18.23;;;;;;;-1.82;51.96;103193.45;1728099;81;22029;-71
2022/03/20 05:53:10;;;;;;;32.63;19.07;;;;;;;-1.79;52.11;103200.05;1760422;81;21012;-71
2022/03/20 05:58:22;;;;;;;35.53;18.93;;;;;;;-1.70;52.15;103206.13;1761112;81;21024;-71
2022/03/20 06:00:49;;;;;;;42.17;21.93;;;;;;;-1.68;52.35;103210.56;1761851;81;21032;-71
2022/03/20 06:03:17;;;;;;;52.17;24.00;;;;;;;-1.62;52.41;103217.75;1759600;81;21082;-71
2022/03/20 06:05:44;;;;;;;54.00;25.07;;;;;;;-1.57;52.54;103218.50;1756556;80;20909;-71
2022/03/20 06:08:12;;;;;;;42.63;21.87;;;;;;;-1.47;52.53;103217.73;1760314;81;20989;-71
2022/03/20 06:10:39;;;;;;;39.33;22.23;;;;;;;-1.31;52.36;103221.67;1760419;81;21475;-71
2022/03/20 06:13:06;;;;;;;42.50;22.40;;;;;;;-1.16;52.31;103221.67;1760098;81;21523;-72
2022/03/20 06:15:33;;;;;;;41.73;21.60;;;;;;;-1.04;52.20;103226.21;1760483;81;21149;-71
2022/03/20 06:18:04;;;;;;;46.37;22.27;;;;;;;-0.94;52.21;103222.48;1760598;81;20993;-72
2022/03/20 06:20:35;;;;;;;56.40;27.90;;;;;;;-0.85;52.05;103213.96;1762134;81;21020;-72
2022/03/20 06:23:02;;;;;;;67.40;34.50;;;;;;;-0.76;52.01;103219.60;1762345;81;21012;-72
2022/03/20 06:25:31;;;;;;;55.07;27.70;;;;;;;-0.66;51.73;103218.43;1762107;81;21528;-72
2022/03/20 06:28:00;;;;;;;62.00;29.13;;;;;;;-0.57;51.55;103221.90;1762114;81;21079;-72
2022/03/20 06:30:27;;;;;;;44.07;22.97;;;;;;;-0.46;51.40;103219.09;1762010;81;21458;-72
2022/03/20 06:32:56;;;;;;;56.23;28.90;;;;;;;-0.32;51.06;103222.39;1762248;81;21016;-72
2022/03/20 06:35:23;;;;;;;74.03;39.80;;;;;;;-0.14;50.82;103222.87;1761985;81;21493;-72
2022/03/20 06:37:52;;;;;;;75.47;39.77;;;;;;;0.01;50.41;103224.97;1760902;81;21008;-72
2022/03/20 06:40:19;;;;;;;48.73;25.07;;;;;;;0.15;50.17;103229.14;1760664;81;21141;-72
2022/03/20 06:42:47;;;;;;;41.40;23.00;;;;;;;0.30;49.96;103232.00;1760806;81;21004;-72
2022/03/20 06:45:15;;;;;;;36.20;20.23;;;;;;;0.44;49.71;103237.45;1760915;81;21076;-72
2022/03/20 06:47:43;;;;;;;52.90;26.73;;;;;;;0.59;49.43;103242.10;1756532;81;21009;-72
2022/03/20 06:50:14;;;;;;;33.27;19.43;;;;;;;0.74;49.34;103242.37;1761815;80;21550;-72
2022/03/20 06:52:41;;;;;;;33.40;19.40;;;;;;;0.88;49.30;103245.20;1758625;80;21125;-72
2022/03/20 06:55:12;;;;;;;36.47;19.67;;;;;;;1.03;49.32;103246.38;1756721;81;21008;-72
2022/03/20 06:57:45;;;;;;;36.30;19.40;;;;;;;1.16;48.93;103246.12;1756498;81;20973;-72
2022/03/20 07:00:16;;;;;;;33.67;18.90;;;;;;;1.29;48.63;103247.18;1756736;81;21012;-72
2022/03/20 07:02:44;;;;;;;34.50;18.97;;;;;;;1.39;48.30;103244.63;1755361;81;21483;-72
2022/03/20 07:05:11;;;;;;;33.03;18.83;;;;;;;1.49;47.95;103238.17;1756629;81;21096;-72
2022/03/20 07:07:40;;;;;;;34.70;18.83;;;;;;;1.60;47.96;103245.12;1755372;81;21015;-72
2022/03/20 07:10:09;;;;;;;33.57;18.63;;;;;;;1.71;47.83;103241.32;1756601;80;20988;-72
2022/03/20 07:12:35;;;;;;;37.03;19.67;;;;;;;1.83;47.59;103248.73;1755619;81;21000;-72
2022/03/20 07:15:03;;;;;;;33.60;20.10;;;;;;;1.93;47.38;103247.05;1738024;80;21016;-72
2022/03/20 07:17:41;;;;;;;31.60;20.10;;;;;;;2.05;47.28;103254.07;1726444;82;21131;-72
2022/03/20 07:20:10;;;;;;;33.33;19.50;;;;;;;2.16;46.98;103248.95;1726021;82;21092;-71
2022/03/20 07:22:37;;;;;;;37.90;21.20;;;;;;;2.27;46.77;103248.50;1726109;83;20992;-72
2022/03/20 07:30:36;;;;;;;32.47;19.17;;;;;;;2.59;46.26;103247.28;1726513;83;21202;-72
2022/03/20 07:33:03;;;;;;;31.80;20.03;;;;;;;2.65;45.93;103241.94;1726494;83;21552;-71
2022/03/20 07:35:30;;;;;;;34.53;20.73;;;;;;;2.71;45.78;103240.00;1726289;82;21024;-73
2022/03/20 07:37:57;;;;;;;37.67;21.17;;;;;;;2.81;45.76;103241.28;1726646;82;20996;-72
2022/03/20 07:40:24;;;;;;;33.80;20.87;;;;;;;2.88;45.65;103239.39;1726393;82;21015;-72
2022/03/20 07:42:51;;;;;;;34.47;20.23;;;;;;;2.98;45.55;103238.06;1726401;83;21128;-73
2022/03/20 07:45:22;;;;;;;38.17;22.93;;;;;;;3.07;45.37;103233.23;1726182;83;21512;-74
2022/03/20 07:47:47;;;;;;;38.77;21.77;;;;;;;3.16;45.16;103234.92;1726109;82;21477;-73
2022/03/20 07:50:14;;;;;;;37.40;22.43;;;;;;;3.26;44.91;103233.55;1727235;81;21018;-73
2022/03/20 07:52:41;;;;;;;36.93;22.50;;;;;;;3.35;44.92;103232.20;1756701;81;21024;-73
2022/03/20 07:55:09;;;;;;;33.63;22.03;;;;;;;3.45;44.55;103232.12;1756330;81;22047;-72
2022/03/20 07:57:42;;;;;;;37.27;21.53;;;;;;;3.55;44.56;103235.55;1756561;81;20999;-73
2022/03/20 08:00:11;;;;;;;38.73;24.03;;;;;;;3.66;44.37;103235.03;1756521;81;22028;-73
2022/03/20 08:02:39;;;;;;;34.13;21.23;;;;;;;3.77;44.20;103232.03;1756740;81;20997;-72
2022/03/20 08:05:07;;;;;;;35.17;20.93;;;;;;;3.87;44.26;103229.77;1756549;81;22031;-72
2022/03/20 08:07:38;;;;;;;33.10;21.47;;;;;;;3.98;44.05;103229.30;1750461;81;21070;-71
2022/03/20 08:10:07;;;;;;;34.53;20.27;;;;;;;4.12;44.02;103222.00;1726258;82;21527;-72
2022/03/20 08:12:36;;;;;;;33.70;20.93;;;;;;;4.29;44.06;103232.09;1727361;81;21039;-72
2022/03/20 08:15:05;;;;;;;35.87;21.53;;;;;;;4.44;43.87;103235.23;1726351;82;21549;-72
2022/03/20 08:17:45;;;;;;;59.70;30.65;;;;;;;4.60;43.76;103233.61;1726848;83;21075;-73
2022/03/20 08:20:14;;;;;;;50.77;30.17;;;;;;;4.78;43.64;103230.71;1732160;81;21983;-73
2022/03/20 08:22:42;;;;;;;40.07;24.63;;;;;;;4.94;43.17;103233.39;1755507;81;21202;-74
2022/03/20 08:25:10;;;;;;;36.07;22.53;;;;;;;5.03;42.82;103228.90;1755565;81;21102;-73
2022/03/20 08:27:48;;;;;;;36.53;22.67;;;;;;;5.16;42.84;103220.64;1756482;81;20960;-73
2022/03/20 08:30:17;;;;;;;34.63;21.87;;;;;;;5.34;42.73;103228.11;1756421;81;21016;-74
2022/03/20 08:32:47;;;;;;;37.67;22.57;;;;;;;5.49;42.49;103227.27;1756426;81;21126;-84
2022/03/20 08:35:19;;;;;;;37.55;22.22;;;;;;;5.66;42.27;103226.88;1754181;80;21020;-84
2022/03/20 08:37:49;;;;;;;33.27;22.53;;;;;;;5.76;42.04;103215.88;1733924;81;21051;-85
2022/03/20 08:40:19;;;;;;;34.58;22.25;;;;;;;5.88;41.81;103221.86;1726719;83;26516;-79
2022/03/20 08:42:52;;;;;;;35.45;22.95;;;;;;;5.99;41.83;103217.44;1703234;83;21080;-74
2022/03/20 08:45:24;;;;;;;36.37;22.70;;;;;;;6.18;41.62;103217.52;1718076;82;21159;-75
2022/03/20 08:47:51;;;;;;;42.98;25.85;;;;;;;6.31;41.29;103216.52;1723888;83;21005;-76
2022/03/20 08:50:19;;;;;;;45.87;27.20;;;;;;;6.47;41.25;103216.06;1724486;83;21032;-73
2022/03/20 08:52:48;;;;;;;35.67;23.40;;;;;;;6.64;41.24;103205.63;1724799;83;21039;-75
2022/03/20 08:55:17;;;;;;;35.97;22.90;;;;;;;6.83;41.13;103207.38;1724435;83;21325;-75
2022/03/20 08:57:51;;;;;;;36.57;22.43;;;;;;;6.96;40.62;103200.30;1724697;83;21116;-75
2022/03/20 09:00:18;;;;;;;38.07;22.90;;;;;;;7.08;40.47;103192.73;1723972;83;20921;-75
2022/03/20 09:02:47;;;;;;;37.00;22.37;;;;;;;7.22;40.28;103197.38;1725057;83;21083;-74
2022/03/20 09:05:22;;;;;;;33.23;21.10;;;;;;;7.32;40.06;103191.53;1724384;83;21044;-73
2022/03/20 09:07:57;;;;;;;31.83;21.67;;;;;;;7.46;39.89;103188.77;1723395;83;21553;-73
2022/03/20 09:10:27;;;;;;;30.70;20.47;;;;;;;7.64;39.59;103191.29;1724235;83;21153;-76
2022/03/20 09:13:00;;;;;;;34.75;21.35;;;;;;;7.76;39.10;103184.59;1724709;83;21032;-75
2022/03/20 09:15:25;;;;;;;33.63;21.53;;;;;;;7.91;38.92;103180.50;1723178;83;20996;-76
2022/03/20 09:20:40;;;;;;;36.80;20.80;;;;;;;8.18;38.31;103179.69;1724546;83;20997;-74
2022/03/20 09:23:11;;;;;;;27.95;20.00;;;;;;;8.35;37.88;103183.89;1724849;83;21128;-74
2022/03/20 09:25:45;;;;;;;32.07;20.00;;;;;;;8.47;37.53;103186.73;1724533;83;20991;-75
2022/03/20 09:28:21;;;;;;;29.67;20.87;;;;;;;8.59;37.09;103187.78;1703391;83;21206;-75
2022/03/20 09:30:48;;;;;;;33.40;22.00;;;;;;;8.70;36.84;103174.05;1724659;83;21036;-75
2022/03/20 09:33:34;;;;;;;29.23;21.43;;;;;;;8.84;36.70;103172.03;1724294;83;21604;-76
2022/03/20 09:36:13;;;;;;;33.00;21.80;;;;;;;8.99;36.63;103171.39;1724554;83;21204;-74
2022/03/20 09:38:42;;;;;;;32.33;21.80;;;;;;;9.21;36.84;103169.95;1724449;83;21029;-74
2022/03/20 09:41:11;;;;;;;29.40;20.33;;;;;;;9.36;36.19;103173.61;1724725;83;21017;-75
2022/03/20 09:43:42;;;;;;;30.87;20.80;;;;;;;9.48;35.86;103165.05;1724525;83;21076;-75
2022/03/20 09:46:09;;;;;;;30.60;20.43;;;;;;;9.65;35.71;103169.17;1724296;83;21206;-75
2022/03/20 09:48:36;;;;;;;30.77;20.60;;;;;;;9.83;35.90;103169.34;1724481;83;21080;-75
2022/03/20 09:51:05;;;;;;;30.50;20.97;;;;;;;10.07;35.51;103166.97;1724425;83;21478;-76
2022/03/20 09:53:33;;;;;;;27.77;20.40;;;;;;;10.22;35.32;103165.34;1724638;83;21036;-75
2022/03/20 09:56:05;;;;;;;29.60;20.67;;;;;;;10.31;34.82;103165.92;1724467;83;20993;-75
2022/03/20 09:58:30;;;;;;;31.10;21.07;;;;;;;10.43;34.61;103169.94;1724576;83;21091;-76
2022/03/20 10:00:58;;;;;;;32.80;20.87;;;;;;;10.57;34.58;103158.23;1724431;83;21001;-76
2022/03/20 10:03:26;;;;;;;30.80;21.07;;;;;;;10.79;34.29;103163.64;1724330;83;21503;-76
2022/03/20 10:06:17;;;;;;;27.80;20.97;;;;;;;10.91;33.90;103165.88;1724360;83;21462;-76
2022/03/20 10:08:59;;;;;;;27.93;20.53;;;;;;;10.95;33.69;103157.61;1668532;86;21520;-75
2022/03/20 10:11:31;;;;;;;28.87;20.33;;;;;;;11.07;33.76;103159.42;1662284;85;21067;-75
2022/03/20 10:14:18;;;;;;;29.00;20.13;;;;;;;11.33;33.61;103158.20;1667409;86;21152;-75
2022/03/20 10:16:56;;;;;;;29.03;20.80;;;;;;;11.55;33.34;103152.16;1667270;86;21019;-75
2022/03/20 10:19:27;;;;;;;31.17;20.37;;;;;;;11.79;33.05;103163.61;1656797;86;21573;-75
2022/03/20 10:22:01;;;;;;;30.62;20.43;;;;;;;11.89;32.71;103156.64;1667169;86;21055;-75
2022/03/20 10:24:31;;;;;;;30.82;21.37;;;;;;;12.08;32.83;103158.41;1666645;86;21047;-75
2022/03/20 10:27:05;;;;;;;28.90;20.62;;;;;;;12.26;32.52;103153.61;1667456;86;21137;-75
2022/03/20 10:29:35;;;;;;;28.95;21.10;;;;;;;12.54;32.59;103145.70;1667231;86;21050;-75
2022/03/20 10:32:09;;;;;;;28.92;21.42;;;;;;;12.80;32.13;103151.78;1667497;86;21076;-76
2022/03/20 10:35:00;;;;;;;31.37;21.00;;;;;;;12.90;31.89;103152.20;1667518;86;21059;-75
2022/03/20 10:37:57;;;;;;;29.07;21.00;;;;;;;12.96;31.56;103143.41;1667354;86;21111;-76
2022/03/20 10:40:29;;;;;;;29.07;20.43;;;;;;;13.00;31.19;103145.16;1667483;86;21144;-76
2022/03/20 10:43:14;;;;;;;25.52;19.73;;;;;;;13.23;31.38;103142.44;1667430;86;21106;-75
2022/03/20 10:46:00;;;;;;;30.30;22.35;;;;;;;13.42;30.90;103153.80;1700049;83;21000;-75
2022/03/20 10:48:45;;;;;;;35.28;19.75;;;;;;;13.49;30.48;103143.64;1734602;82;21004;-76
2022/03/20 10:51:13;;;;;;;28.00;20.40;;;;;;;13.57;30.41;103144.48;1734755;82;21031;-76
2022/03/20 10:54:01;;;;;;;26.37;19.62;;;;;;;13.71;30.33;103134.30;1699395;84;22039;-75
2022/03/20 10:56:28;;;;;;;26.17;20.30;;;;;;;13.96;30.16;103135.00;1699141;84;21290;-75
2022/03/20 10:58:55;;;;;;;28.42;21.35;;;;;;;14.27;30.01;103131.66;1699406;84;21030;-76
2022/03/20 11:01:37;;;;;;;29.23;19.95;;;;;;;14.40;29.53;103128.48;1698989;84;21026;-76
2022/03/20 11:04:08;;;;;;;25.88;19.55;;;;;;;14.42;29.15;103130.22;1699358;84;21009;-76
2022/03/20 11:06:40;;;;;;;27.15;20.12;;;;;;;14.49;28.91;103121.36;1698675;84;21195;-76
2022/03/20 11:09:07;;;;;;;28.55;19.27;;;;;;;14.54;28.77;103123.10;1699337;84;21078;-76
2022/03/20 11:11:42;;;;;;;23.70;19.12;;;;;;;14.70;28.88;103124.69;1699149;84;21023;-76
2022/03/20 11:14:11;;;;;;;23.85;18.75;;;;;;;14.97;29.01;103118.67;1699324;84;20980;-75
2022/03/20 11:16:41;;;;;;;26.33;19.90;;;;;;;15.14;28.49;103116.23;1699584;84;21219;-76
2022/03/20 11:19:15;;;;;;;26.68;20.43;;;;;;;15.25;28.21;103119.20;1699580;84;21022;-76
2022/03/20 11:21:47;;;;;;;24.02;19.42;;;;;;;15.24;27.98;103121.39;1698920;84;21051;-75
2022/03/20 11:24:21;;;;;;;24.75;19.65;;;;;;;15.42;28.33;103105.30;1699263;84;21042;-76
2022/03/20 11:26:53;;;;;;;24.40;19.65;;;;;;;15.59;28.00;103105.92;1699122;84;21585;-76
2022/03/20 11:29:23;;;;;;;25.95;19.85;;;;;;;15.67;27.50;103104.48;1699437;84;21038;-76
2022/03/20 11:31:50;;;;;;;26.52;20.27;;;;;;;15.60;27.42;103101.50;1699469;84;21112;-79
2022/03/20 11:34:19;;;;;;;24.95;19.37;;;;;;;15.85;27.71;103095.41;1699289;84;21016;-76
2022/03/20 11:37:10;;;;;;;26.57;19.98;;;;;;;16.01;27.20;103094.72;1700046;83;21574;-75
2022/03/20 11:39:41;;;;;;;28.35;19.77;;;;;;;15.94;26.99;103089.12;1710113;83;21028;-75
2022/03/20 11:42:29;;;;;;;27.45;19.82;;;;;;;15.92;26.82;103085.62;1706687;83;21061;-75
2022/03/20 11:45:06;;;;;;;32.45;21.97;;;;;;;16.12;27.08;103079.53;1702050;83;21193;-75
2022/03/20 11:47:51;;;;;;;23.67;19.60;;;;;;;16.38;26.97;103071.56;1722132;82;21533;-75
2022/03/20 11:50:27;;;;;;;22.95;19.12;;;;;;;16.47;26.28;103076.70;1743704;81;21571;-75
2022/03/20 11:53:02;;;;;;;25.85;20.95;;;;;;;16.48;26.48;103077.11;1760755;80;21560;-74
2022/03/20 11:55:43;;;;;;;25.55;20.80;;;;;;;16.55;26.12;103073.45;1756690;80;21021;-74
2022/03/20 11:58:25;;;;;;;27.22;19.95;;;;;;;16.43;25.94;103063.98;1753182;81;21717;-75